sensor_id;sensor_type;location;lat;lon;timestamp;temperature;humidity
7654;DHT22;3869;48.406;10.774;2024-02-23T00:01:16;9.10;99.90
7654;DHT22;3869;48.406;10.774;2024-02-23T00:03:44;9.00;99.90
7654;DHT22;3869;48.406;10.774;2024-02-23T00:06:12;8.80;99.90
7654;DHT22;3869;48.406;10.774;2024-02-23T00:08:41;8.70;99.90
7654;DHT22;3869;48.406;10.774;2024-02-23T00:11:09;8.60;99.90
7654;DHT22;3869;48.406;10.774;2024-02-23T00:13:39;8.40;99.90
7654;DHT22;3869;48.406;10.774;2024-02-23T00:16:07;8.30;99.90
7654;DHT22;3869;48.406;10.774;2024-02-23T00:18:35;8.30;99.90
7654;DHT22;3869;48.406;10.774;2024-02-23T00:21:03;8.20;99.90
7654;DHT22;3869;48.406;10.774;2024-02-23T00:23:32;8.10;99.90
7654;DHT22;3869;48.406;10.774;2024-02-23T00:26:00;8.10;99.90
7654;DHT22;3869;48.406;10.774;2024-02-23T00:28:28;8.00;99.90
7654;DHT22;3869;48.406;10.774;2024-02-23T00:30:57;7.90;99.90
7654;DHT22;3869;48.406;10.774;2024-02-23T00:33:25;7.90;99.90
7654;DHT22;3869;48.406;10.774;2024-02-23T00:35:53;7.90;99.90
7654;DHT22;3869;48.406;10.774;2024-02-23T00:38:21;7.80;99.90
7654;DHT22;3869;48.406;10.774;2024-02-23T00:40:50;7.80;99.90
7654;DHT22;3869;48.406;10.774;2024-02-23T00:43:19;7.80;99.90
7654;DHT22;3869;48.406;10.774;2024-02-23T00:45:47;7.80;99.90
7654;DHT22;3869;48.406;10.774;2024-02-23T00:48:16;7.80;99.90
7654;DHT22;3869;48.406;10.774;2024-02-23T00:50:44;7.90;99.90
7654;DHT22;3869;48.406;10.774;2024-02-23T00:53:13;7.90;99.90
7654;DHT22;3869;48.406;10.774;2024-02-23T00:55:41;8.00;99.90
7654;DHT22;3869;48.406;10.774;2024-02-23T00:58:10;8.10;99.90
7654;DHT22;3869;48.406;10.774;2024-02-23T01:00:38;8.10;99.90
7654;DHT22;3869;48.406;10.774;2024-02-23T01:03:06;8.10;99.90
7654;DHT22;3869;48.406;10.774;2024-02-23T01:05:35;8.10;99.90
7654;DHT22;3869;48.406;10.774;2024-02-23T01:08:05;8.10;99.90
7654;DHT22;3869;48.406;10.774;2024-02-23T01:10:33;8.20;99.90
7654;DHT22;3869;48.406;10.774;2024-02-23T01:13:01;8.20;99.90
7654;DHT22;3869;48.406;10.774;2024-02-23T01:15:29;8.20;99.90
7654;DHT22;3869;48.406;10.774;2024-02-23T01:17:57;8.30;99.90
7654;DHT22;3869;48.406;10.774;2024-02-23T01:20:26;8.30;99.90
7654;DHT22;3869;48.406;10.774;2024-02-23T01:22:55;8.30;99.90
7654;DHT22;3869;48.406;10.774;2024-02-23T01:25:23;8.30;99.90
7654;DHT22;3869;48.406;10.774;2024-02-23T01:27:51;8.40;99.90
7654;DHT22;3869;48.406;10.774;2024-02-23T01:30:19;8.30;99.90
7654;DHT22;3869;48.406;10.774;2024-02-23T01:32:47;8.30;99.90
7654;DHT22;3869;48.406;10.774;2024-02-23T01:35:17;8.30;99.90
7654;DHT22;3869;48.406;10.774;2024-02-23T01:37:45;8.30;99.90
7654;DHT22;3869;48.406;10.774;2024-02-23T01:40:15;8.30;99.90
7654;DHT22;3869;48.406;10.774;2024-02-23T01:42:43;8.40;99.90
7654;DHT22;3869;48.406;10.774;2024-02-23T01:45:11;8.40;99.90
7654;DHT22;3869;48.406;10.774;2024-02-23T01:47:39;8.30;99.90
7654;DHT22;3869;48.406;10.774;2024-02-23T01:50:09;8.20;99.90
7654;DHT22;3869;48.406;10.774;2024-02-23T01:52:39;8.10;99.90
7654;DHT22;3869;48.406;10.774;2024-02-23T01:55:08;7.90;99.90
7654;DHT22;3869;48.406;10.774;2024-02-23T01:57:37;7.80;99.90
7654;DHT22;3869;48.406;10.774;2024-02-23T02:00:17;7.50;99.90
7654;DHT22;3869;48.406;10.774;2024-02-23T02:02:47;7.20;99.90
7654;DHT22;3869;48.406;10.774;2024-02-23T02:05:15;6.90;99.90
7654;DHT22;3869;48.406;10.774;2024-02-23T02:07:43;6.60;99.90
7654;DHT22;3869;48.406;10.774;2024-02-23T02:10:13;6.40;99.90
7654;DHT22;3869;48.406;10.774;2024-02-23T02:12:42;6.10;99.90
7654;DHT22;3869;48.406;10.774;2024-02-23T02:15:10;6.10;99.90
7654;DHT22;3869;48.406;10.774;2024-02-23T02:17:38;6.00;99.90
7654;DHT22;3869;48.406;10.774;2024-02-23T02:20:11;5.90;99.90
7654;DHT22;3869;48.406;10.774;2024-02-23T02:22:39;5.90;99.90
7654;DHT22;3869;48.406;10.774;2024-02-23T02:25:08;5.90;99.90
7654;DHT22;3869;48.406;10.774;2024-02-23T02:27:36;5.90;99.90
7654;DHT22;3869;48.406;10.774;2024-02-23T02:30:07;5.70;99.90
7654;DHT22;3869;48.406;10.774;2024-02-23T02:32:36;5.70;99.90
7654;DHT22;3869;48.406;10.774;2024-02-23T02:35:04;5.60;99.90
7654;DHT22;3869;48.406;10.774;2024-02-23T02:37:33;5.50;99.90
7654;DHT22;3869;48.406;10.774;2024-02-23T02:40:01;5.40;99.90
7654;DHT22;3869;48.406;10.774;2024-02-23T02:42:29;5.30;99.90
7654;DHT22;3869;48.406;10.774;2024-02-23T02:44:57;5.30;99.90
7654;DHT22;3869;48.406;10.774;2024-02-23T02:47:27;5.20;99.90
7654;DHT22;3869;48.406;10.774;2024-02-23T02:49:55;5.20;99.90
7654;DHT22;3869;48.406;10.774;2024-02-23T02:52:23;5.20;99.90
7654;DHT22;3869;48.406;10.774;2024-02-23T02:54:51;5.10;99.90
7654;DHT22;3869;48.406;10.774;2024-02-23T02:57:19;5.10;99.90
7654;DHT22;3869;48.406;10.774;2024-02-23T02:59:48;5.10;99.90
7654;DHT22;3869;48.406;10.774;2024-02-23T03:02:17;5.10;99.90
7654;DHT22;3869;48.406;10.774;2024-02-23T03:04:49;5.10;99.90
7654;DHT22;3869;48.406;10.774;2024-02-23T03:07:18;5.10;99.90
7654;DHT22;3869;48.406;10.774;2024-02-23T03:09:46;5.10;99.90
7654;DHT22;3869;48.406;10.774;2024-02-23T03:12:15;5.10;99.90
7654;DHT22;3869;48.406;10.774;2024-02-23T03:14:44;5.20;99.90
7654;DHT22;3869;48.406;10.774;2024-02-23T03:17:12;5.20;99.90
7654;DHT22;3869;48.406;10.774;2024-02-23T03:19:40;5.30;99.90
7654;DHT22;3869;48.406;10.774;2024-02-23T03:22:09;5.30;99.90
7654;DHT22;3869;48.406;10.774;2024-02-23T03:24:37;5.30;99.90
7654;DHT22;3869;48.406;10.774;2024-02-23T03:27:05;5.30;99.90
7654;DHT22;3869;48.406;10.774;2024-02-23T03:29:34;5.30;99.90
7654;DHT22;3869;48.406;10.774;2024-02-23T03:32:02;5.40;99.90
7654;DHT22;3869;48.406;10.774;2024-02-23T03:34:30;5.40;99.90
7654;DHT22;3869;48.406;10.774;2024-02-23T03:36:58;5.40;99.90
7654;DHT22;3869;48.406;10.774;2024-02-23T03:39:29;5.40;99.90
7654;DHT22;3869;48.406;10.774;2024-02-23T03:41:58;5.30;99.90
7654;DHT22;3869;48.406;10.774;2024-02-23T03:44:26;5.20;99.90
7654;DHT22;3869;48.406;10.774;2024-02-23T03:46:55;5.20;99.90
7654;DHT22;3869;48.406;10.774;2024-02-23T03:49:23;5.30;99.90
7654;DHT22;3869;48.406;10.774;2024-02-23T03:51:51;5.30;99.90
7654;DHT22;3869;48.406;10.774;2024-02-23T03:54:19;5.30;99.90
7654;DHT22;3869;48.406;10.774;2024-02-23T03:56:48;5.30;99.90
7654;DHT22;3869;48.406;10.774;2024-02-23T03:59:16;5.30;99.90
7654;DHT22;3869;48.406;10.774;2024-02-23T04:01:44;5.40;99.90
7654;DHT22;3869;48.406;10.774;2024-02-23T04:04:12;5.40;99.90
7654;DHT22;3869;48.406;10.774;2024-02-23T04:06:40;5.40;99.90
7654;DHT22;3869;48.406;10.774;2024-02-23T04:09:08;5.40;99.90
7654;DHT22;3869;48.406;10.774;2024-02-23T04:11:36;5.50;99.90
7654;DHT22;3869;48.406;10.774;2024-02-23T04:14:06;5.50;99.90
7654;DHT22;3869;48.406;10.774;2024-02-23T04:16:34;5.50;99.90
7654;DHT22;3869;48.406;10.774;2024-02-23T04:19:02;5.50;99.90
7654;DHT22;3869;48.406;10.774;2024-02-23T04:21:30;5.50;99.90
7654;DHT22;3869;48.406;10.774;2024-02-23T04:23:58;5.50;99.90
7654;DHT22;3869;48.406;10.774;2024-02-23T04:26:26;5.50;99.90
7654;DHT22;3869;48.406;10.774;2024-02-23T04:28:54;5.50;99.90
7654;DHT22;3869;48.406;10.774;2024-02-23T04:31:24;5.60;99.90
7654;DHT22;3869;48.406;10.774;2024-02-23T04:33:51;5.50;99.90
7654;DHT22;3869;48.406;10.774;2024-02-23T04:36:20;5.50;99.90
7654;DHT22;3869;48.406;10.774;2024-02-23T04:38:48;5.50;99.90
7654;DHT22;3869;48.406;10.774;2024-02-23T04:41:19;5.50;99.90
7654;DHT22;3869;48.406;10.774;2024-02-23T04:43:48;5.50;99.90
7654;DHT22;3869;48.406;10.774;2024-02-23T04:46:16;5.50;99.90
7654;DHT22;3869;48.406;10.774;2024-02-23T04:48:46;5.50;99.90
7654;DHT22;3869;48.406;10.774;2024-02-23T04:51:14;5.50;99.90
7654;DHT22;3869;48.406;10.774;2024-02-23T04:53:42;5.50;99.90
7654;DHT22;3869;48.406;10.774;2024-02-23T04:56:10;5.30;99.90
7654;DHT22;3869;48.406;10.774;2024-02-23T04:58:38;5.40;99.90
7654;DHT22;3869;48.406;10.774;2024-02-23T05:01:08;5.40;99.90
7654;DHT22;3869;48.406;10.774;2024-02-23T05:03:36;5.50;99.90
7654;DHT22;3869;48.406;10.774;2024-02-23T05:06:05;5.00;99.90
7654;DHT22;3869;48.406;10.774;2024-02-23T05:08:34;5.50;99.90
7654;DHT22;3869;48.406;10.774;2024-02-23T05:11:02;5.60;99.90
7654;DHT22;3869;48.406;10.774;2024-02-23T05:13:30;5.50;99.90
7654;DHT22;3869;48.406;10.774;2024-02-23T05:15:58;5.50;99.90
7654;DHT22;3869;48.406;10.774;2024-02-23T05:18:26;5.50;99.90
7654;DHT22;3869;48.406;10.774;2024-02-23T05:20:54;5.50;99.90
7654;DHT22;3869;48.406;10.774;2024-02-23T05:23:23;5.40;99.90
7654;DHT22;3869;48.406;10.774;2024-02-23T05:25:51;5.50;99.90
7654;DHT22;3869;48.406;10.774;2024-02-23T05:28:19;5.50;99.90
7654;DHT22;3869;48.406;10.774;2024-02-23T05:30:47;5.50;99.90
7654;DHT22;3869;48.406;10.774;2024-02-23T05:33:15;5.50;99.90
7654;DHT22;3869;48.406;10.774;2024-02-23T05:35:47;5.50;99.90
7654;DHT22;3869;48.406;10.774;2024-02-23T05:38:15;5.50;99.90
7654;DHT22;3869;48.406;10.774;2024-02-23T05:40:45;5.50;99.90
7654;DHT22;3869;48.406;10.774;2024-02-23T05:43:15;5.50;99.90
7654;DHT22;3869;48.406;10.774;2024-02-23T05:45:43;5.50;99.90
7654;DHT22;3869;48.406;10.774;2024-02-23T05:48:12;5.50;99.90
7654;DHT22;3869;48.406;10.774;2024-02-23T05:50:40;5.50;99.90
7654;DHT22;3869;48.406;10.774;2024-02-23T05:53:08;5.50;99.90
7654;DHT22;3869;48.406;10.774;2024-02-23T05:55:37;5.40;99.90
7654;DHT22;3869;48.406;10.774;2024-02-23T05:58:06;5.40;99.90
7654;DHT22;3869;48.406;10.774;2024-02-23T06:00:35;5.50;99.90
7654;DHT22;3869;48.406;10.774;2024-02-23T06:03:03;5.40;99.90
7654;DHT22;3869;48.406;10.774;2024-02-23T06:05:31;5.40;99.90
7654;DHT22;3869;48.406;10.774;2024-02-23T06:07:59;5.50;99.90
7654;DHT22;3869;48.406;10.774;2024-02-23T06:10:28;5.50;99.90
7654;DHT22;3869;48.406;10.774;2024-02-23T06:12:56;5.40;99.90
7654;DHT22;3869;48.406;10.774;2024-02-23T06:15:28;5.40;99.90
7654;DHT22;3869;48.406;10.774;2024-02-23T06:17:56;5.40;99.90
7654;DHT22;3869;48.406;10.774;2024-02-23T06:20:24;5.40;99.90
7654;DHT22;3869;48.406;10.774;2024-02-23T06:22:52;5.30;99.90
7654;DHT22;3869;48.406;10.774;2024-02-23T06:25:20;5.30;99.90
7654;DHT22;3869;48.406;10.774;2024-02-23T06:27:48;5.30;99.90
7654;DHT22;3869;48.406;10.774;2024-02-23T06:30:16;5.30;99.90
7654;DHT22;3869;48.406;10.774;2024-02-23T06:32:46;5.30;99.90
7654;DHT22;3869;48.406;10.774;2024-02-23T06:35:14;5.30;99.90
7654;DHT22;3869;48.406;10.774;2024-02-23T06:37:42;5.30;99.90
7654;DHT22;3869;48.406;10.774;2024-02-23T06:40:10;5.30;99.90
7654;DHT22;3869;48.406;10.774;2024-02-23T06:42:38;5.30;99.90
7654;DHT22;3869;48.406;10.774;2024-02-23T06:45:07;5.30;99.90
7654;DHT22;3869;48.406;10.774;2024-02-23T06:47:35;5.40;99.90
7654;DHT22;3869;48.406;10.774;2024-02-23T06:50:06;5.40;99.90
7654;DHT22;3869;48.406;10.774;2024-02-23T06:52:35;5.50;99.90
7654;DHT22;3869;48.406;10.774;2024-02-23T06:55:04;5.50;99.90
7654;DHT22;3869;48.406;10.774;2024-02-23T06:57:33;5.50;99.90
7654;DHT22;3869;48.406;10.774;2024-02-23T07:00:02;5.60;99.90
7654;DHT22;3869;48.406;10.774;2024-02-23T07:02:30;5.60;99.90
7654;DHT22;3869;48.406;10.774;2024-02-23T07:05:01;5.70;99.90
7654;DHT22;3869;48.406;10.774;2024-02-23T07:07:32;5.70;99.90
7654;DHT22;3869;48.406;10.774;2024-02-23T07:10:00;5.60;99.90
7654;DHT22;3869;48.406;10.774;2024-02-23T07:12:28;5.70;99.90
7654;DHT22;3869;48.406;10.774;2024-02-23T07:14:56;5.70;99.90
7654;DHT22;3869;48.406;10.774;2024-02-23T07:17:24;5.70;99.90
7654;DHT22;3869;48.406;10.774;2024-02-23T07:19:52;5.70;99.90
7654;DHT22;3869;48.406;10.774;2024-02-23T07:22:20;5.70;99.90
7654;DHT22;3869;48.406;10.774;2024-02-23T07:24:50;5.70;99.90
7654;DHT22;3869;48.406;10.774;2024-02-23T07:27:18;5.70;99.90
7654;DHT22;3869;48.406;10.774;2024-02-23T07:29:46;5.70;99.90
7654;DHT22;3869;48.406;10.774;2024-02-23T07:32:14;5.80;99.90
7654;DHT22;3869;48.406;10.774;2024-02-23T07:34:43;5.80;99.90
7654;DHT22;3869;48.406;10.774;2024-02-23T07:37:11;5.70;99.90
7654;DHT22;3869;48.406;10.774;2024-02-23T07:39:39;5.70;99.90
7654;DHT22;3869;48.406;10.774;2024-02-23T07:42:08;5.80;99.90
7654;DHT22;3869;48.406;10.774;2024-02-23T07:44:37;5.80;99.90
7654;DHT22;3869;48.406;10.774;2024-02-23T07:47:05;5.80;99.90
7654;DHT22;3869;48.406;10.774;2024-02-23T07:49:33;5.80;99.90
7654;DHT22;3869;48.406;10.774;2024-02-23T07:52:03;5.90;99.90
7654;DHT22;3869;48.406;10.774;2024-02-23T07:54:31;5.90;99.90
7654;DHT22;3869;48.406;10.774;2024-02-23T07:56:59;6.00;99.90
7654;DHT22;3869;48.406;10.774;2024-02-23T07:59:28;6.00;99.90
7654;DHT22;3869;48.406;10.774;2024-02-23T08:01:57;6.10;99.90
7654;DHT22;3869;48.406;10.774;2024-02-23T08:04:25;6.10;99.90
7654;DHT22;3869;48.406;10.774;2024-02-23T08:06:53;6.20;99.90
7654;DHT22;3869;48.406;10.774;2024-02-23T08:09:21;6.30;99.90
7654;DHT22;3869;48.406;10.774;2024-02-23T08:11:50;6.30;99.90
7654;DHT22;3869;48.406;10.774;2024-02-23T08:14:18;6.30;99.90
7654;DHT22;3869;48.406;10.774;2024-02-23T08:16:48;6.30;99.90
7654;DHT22;3869;48.406;10.774;2024-02-23T08:19:19;6.20;99.90
7654;DHT22;3869;48.406;10.774;2024-02-23T08:21:57;6.20;99.90
7654;DHT22;3869;48.406;10.774;2024-02-23T08:24:25;6.30;99.90
7654;DHT22;3869;48.406;10.774;2024-02-23T08:26:53;6.20;99.90
7654;DHT22;3869;48.406;10.774;2024-02-23T08:29:21;6.30;99.90
7654;DHT22;3869;48.406;10.774;2024-02-23T08:31:51;6.30;99.90
7654;DHT22;3869;48.406;10.774;2024-02-23T08:34:19;6.30;99.90
7654;DHT22;3869;48.406;10.774;2024-02-23T08:36:47;6.30;99.90
7654;DHT22;3869;48.406;10.774;2024-02-23T08:39:15;6.30;99.90
7654;DHT22;3869;48.406;10.774;2024-02-23T08:41:43;6.40;99.90
7654;DHT22;3869;48.406;10.774;2024-02-23T08:44:11;6.40;99.90
7654;DHT22;3869;48.406;10.774;2024-02-23T08:46:39;6.40;99.90
7654;DHT22;3869;48.406;10.774;2024-02-23T08:49:08;6.40;99.90
7654;DHT22;3869;48.406;10.774;2024-02-23T08:51:36;6.40;99.90
7654;DHT22;3869;48.406;10.774;2024-02-23T08:54:04;6.40;99.90
7654;DHT22;3869;48.406;10.774;2024-02-23T08:56:37;6.40;99.90
7654;DHT22;3869;48.406;10.774;2024-02-23T08:59:05;6.40;99.90
7654;DHT22;3869;48.406;10.774;2024-02-23T09:01:33;6.40;99.90
7654;DHT22;3869;48.406;10.774;2024-02-23T09:04:01;6.40;99.90
7654;DHT22;3869;48.406;10.774;2024-02-23T09:06:31;6.30;99.90
7654;DHT22;3869;48.406;10.774;2024-02-23T09:09:05;6.40;99.90
7654;DHT22;3869;48.406;10.774;2024-02-23T09:11:33;6.40;99.90
7654;DHT22;3869;48.406;10.774;2024-02-23T09:14:01;6.40;99.90
7654;DHT22;3869;48.406;10.774;2024-02-23T09:16:29;6.30;99.90
7654;DHT22;3869;48.406;10.774;2024-02-23T09:18:57;6.30;99.90
7654;DHT22;3869;48.406;10.774;2024-02-23T09:21:25;6.30;99.90
7654;DHT22;3869;48.406;10.774;2024-02-23T09:23:54;6.30;99.90
7654;DHT22;3869;48.406;10.774;2024-02-23T09:26:22;6.40;99.90
7654;DHT22;3869;48.406;10.774;2024-02-23T09:28:50;6.40;99.90
7654;DHT22;3869;48.406;10.774;2024-02-23T09:31:18;6.40;99.90
7654;DHT22;3869;48.406;10.774;2024-02-23T09:33:46;6.40;99.90
7654;DHT22;3869;48.406;10.774;2024-02-23T09:36:16;6.40;99.90
7654;DHT22;3869;48.406;10.774;2024-02-23T09:38:49;6.40;99.90
7654;DHT22;3869;48.406;10.774;2024-02-23T09:41:23;6.70;99.90
7654;DHT22;3869;48.406;10.774;2024-02-23T09:43:52;6.40;99.90
7654;DHT22;3869;48.406;10.774;2024-02-23T09:46:20;6.40;99.90
7654;DHT22;3869;48.406;10.774;2024-02-23T09:48:49;6.40;99.90
7654;DHT22;3869;48.406;10.774;2024-02-23T09:51:18;6.50;99.90
7654;DHT22;3869;48.406;10.774;2024-02-23T09:53:49;6.50;99.90
7654;DHT22;3869;48.406;10.774;2024-02-23T09:56:17;6.60;99.90
7654;DHT22;3869;48.406;10.774;2024-02-23T09:58:49;6.60;99.90
7654;DHT22;3869;48.406;10.774;2024-02-23T10:01:24;6.60;99.90
7654;DHT22;3869;48.406;10.774;2024-02-23T10:03:53;6.60;99.90
7654;DHT22;3869;48.406;10.774;2024-02-23T10:06:24;6.60;99.90
7654;DHT22;3869;48.406;10.774;2024-02-23T10:08:52;6.60;99.90
7654;DHT22;3869;48.406;10.774;2024-02-23T10:11:21;6.70;99.90
7654;DHT22;3869;48.406;10.774;2024-02-23T10:13:51;6.70;99.90
7654;DHT22;3869;48.406;10.774;2024-02-23T10:16:20;6.70;99.90
7654;DHT22;3869;48.406;10.774;2024-02-23T10:18:48;6.70;99.90
7654;DHT22;3869;48.406;10.774;2024-02-23T10:21:17;6.60;99.90
7654;DHT22;3869;48.406;10.774;2024-02-23T10:23:45;6.60;99.90
7654;DHT22;3869;48.406;10.774;2024-02-23T10:26:14;6.60;99.90
7654;DHT22;3869;48.406;10.774;2024-02-23T10:28:45;6.60;99.90
7654;DHT22;3869;48.406;10.774;2024-02-23T10:31:15;6.60;99.90
7654;DHT22;3869;48.406;10.774;2024-02-23T10:33:44;6.60;99.90
7654;DHT22;3869;48.406;10.774;2024-02-23T10:36:15;6.70;99.90
7654;DHT22;3869;48.406;10.774;2024-02-23T10:38:45;6.70;99.90
7654;DHT22;3869;48.406;10.774;2024-02-23T10:41:14;6.70;99.90
7654;DHT22;3869;48.406;10.774;2024-02-23T10:43:46;6.70;99.90
7654;DHT22;3869;48.406;10.774;2024-02-23T10:46:16;6.80;99.90
7654;DHT22;3869;48.406;10.774;2024-02-23T10:48:45;6.90;99.90
7654;DHT22;3869;48.406;10.774;2024-02-23T10:51:14;6.90;99.90
7654;DHT22;3869;48.406;10.774;2024-02-23T10:53:48;7.00;99.90
7654;DHT22;3869;48.406;10.774;2024-02-23T10:56:17;7.00;99.90
7654;DHT22;3869;48.406;10.774;2024-02-23T10:58:45;7.00;99.90
7654;DHT22;3869;48.406;10.774;2024-02-23T11:01:14;7.00;99.90
7654;DHT22;3869;48.406;10.774;2024-02-23T11:03:44;7.00;99.90
7654;DHT22;3869;48.406;10.774;2024-02-23T11:06:16;7.00;99.90
7654;DHT22;3869;48.406;10.774;2024-02-23T11:08:48;7.00;99.90
7654;DHT22;3869;48.406;10.774;2024-02-23T11:11:17;7.00;99.90
7654;DHT22;3869;48.406;10.774;2024-02-23T11:13:46;7.00;99.90
7654;DHT22;3869;48.406;10.774;2024-02-23T11:16:22;7.00;99.90
7654;DHT22;3869;48.406;10.774;2024-02-23T11:19:03;7.00;99.90
7654;DHT22;3869;48.406;10.774;2024-02-23T11:21:35;6.90;99.90
7654;DHT22;3869;48.406;10.774;2024-02-23T11:24:04;6.80;99.90
7654;DHT22;3869;48.406;10.774;2024-02-23T11:26:32;6.80;99.90
7654;DHT22;3869;48.406;10.774;2024-02-23T11:29:10;6.80;99.90
7654;DHT22;3869;48.406;10.774;2024-02-23T11:31:44;6.80;99.90
7654;DHT22;3869;48.406;10.774;2024-02-23T11:34:21;6.80;99.90
7654;DHT22;3869;48.406;10.774;2024-02-23T11:36:51;6.70;99.90
7654;DHT22;3869;48.406;10.774;2024-02-23T11:39:20;6.70;99.90
7654;DHT22;3869;48.406;10.774;2024-02-23T11:41:48;6.80;99.90
7654;DHT22;3869;48.406;10.774;2024-02-23T11:44:17;6.80;99.90
7654;DHT22;3869;48.406;10.774;2024-02-23T11:46:46;6.80;99.90
7654;DHT22;3869;48.406;10.774;2024-02-23T11:49:16;6.90;99.90
7654;DHT22;3869;48.406;10.774;2024-02-23T11:51:44;6.90;99.90
7654;DHT22;3869;48.406;10.774;2024-02-23T11:54:12;7.00;99.90
7654;DHT22;3869;48.406;10.774;2024-02-23T11:56:41;7.00;99.90
7654;DHT22;3869;48.406;10.774;2024-02-23T11:59:10;7.10;99.90
7654;DHT22;3869;48.406;10.774;2024-02-23T12:01:38;7.10;99.90
7654;DHT22;3869;48.406;10.774;2024-02-23T12:04:06;7.20;99.90
7654;DHT22;3869;48.406;10.774;2024-02-23T12:06:36;7.20;99.90
7654;DHT22;3869;48.406;10.774;2024-02-23T12:09:04;7.20;99.90
7654;DHT22;3869;48.406;10.774;2024-02-23T12:11:32;7.20;99.90
7654;DHT22;3869;48.406;10.774;2024-02-23T12:14:00;7.20;99.90
7654;DHT22;3869;48.406;10.774;2024-02-23T12:16:29;7.20;99.90
7654;DHT22;3869;48.406;10.774;2024-02-23T12:18:57;7.20;99.90
7654;DHT22;3869;48.406;10.774;2024-02-23T12:21:25;7.20;99.90
7654;DHT22;3869;48.406;10.774;2024-02-23T12:23:54;7.10;99.90
7654;DHT22;3869;48.406;10.774;2024-02-23T12:26:23;7.10;99.90
7654;DHT22;3869;48.406;10.774;2024-02-23T12:28:51;7.20;99.90
7654;DHT22;3869;48.406;10.774;2024-02-23T12:31:24;7.20;99.90
7654;DHT22;3869;48.406;10.774;2024-02-23T12:33:53;7.30;99.90
7654;DHT22;3869;48.406;10.774;2024-02-23T12:36:23;7.30;99.90
7654;DHT22;3869;48.406;10.774;2024-02-23T12:38:51;7.40;99.90
7654;DHT22;3869;48.406;10.774;2024-02-23T12:41:20;7.40;99.90
7654;DHT22;3869;48.406;10.774;2024-02-23T12:43:49;7.40;99.90
7654;DHT22;3869;48.406;10.774;2024-02-23T12:46:17;7.40;99.90
7654;DHT22;3869;48.406;10.774;2024-02-23T12:48:45;7.40;99.90
7654;DHT22;3869;48.406;10.774;2024-02-23T12:51:13;7.50;99.90
7654;DHT22;3869;48.406;10.774;2024-02-23T12:53:42;7.60;99.90
7654;DHT22;3869;48.406;10.774;2024-02-23T12:56:11;7.60;99.90
7654;DHT22;3869;48.406;10.774;2024-02-23T12:58:42;7.70;99.90
7654;DHT22;3869;48.406;10.774;2024-02-23T13:01:11;7.80;99.90
7654;DHT22;3869;48.406;10.774;2024-02-23T13:03:40;7.80;99.90
7654;DHT22;3869;48.406;10.774;2024-02-23T13:06:08;7.80;99.90
7654;DHT22;3869;48.406;10.774;2024-02-23T13:08:37;7.80;99.90
7654;DHT22;3869;48.406;10.774;2024-02-23T13:11:06;7.80;99.90
7654;DHT22;3869;48.406;10.774;2024-02-23T13:13:34;7.80;99.90
7654;DHT22;3869;48.406;10.774;2024-02-23T13:16:04;7.70;99.90
7654;DHT22;3869;48.406;10.774;2024-02-23T13:18:33;7.70;99.90
7654;DHT22;3869;48.406;10.774;2024-02-23T13:21:01;7.70;99.90
7654;DHT22;3869;48.406;10.774;2024-02-23T13:23:30;7.80;99.90
7654;DHT22;3869;48.406;10.774;2024-02-23T13:25:58;7.80;99.90
7654;DHT22;3869;48.406;10.774;2024-02-23T13:28:29;7.90;99.90
7654;DHT22;3869;48.406;10.774;2024-02-23T13:30:57;8.00;99.90
7654;DHT22;3869;48.406;10.774;2024-02-23T13:33:27;8.00;99.90
7654;DHT22;3869;48.406;10.774;2024-02-23T13:35:55;8.10;99.90
7654;DHT22;3869;48.406;10.774;2024-02-23T13:38:23;8.10;99.90
7654;DHT22;3869;48.406;10.774;2024-02-23T13:40:51;8.00;99.90
7654;DHT22;3869;48.406;10.774;2024-02-23T13:43:20;8.00;99.90
7654;DHT22;3869;48.406;10.774;2024-02-23T13:45:49;8.00;99.90
7654;DHT22;3869;48.406;10.774;2024-02-23T13:48:18;7.90;99.90
7654;DHT22;3869;48.406;10.774;2024-02-23T13:50:48;8.00;99.90
7654;DHT22;3869;48.406;10.774;2024-02-23T13:53:16;8.00;99.90
7654;DHT22;3869;48.406;10.774;2024-02-23T13:55:44;8.00;99.90
7654;DHT22;3869;48.406;10.774;2024-02-23T13:58:12;8.00;99.90
7654;DHT22;3869;48.406;10.774;2024-02-23T14:00:40;7.90;99.90
7654;DHT22;3869;48.406;10.774;2024-02-23T14:03:11;7.80;99.90
7654;DHT22;3869;48.406;10.774;2024-02-23T14:05:43;7.80;99.90
7654;DHT22;3869;48.406;10.774;2024-02-23T14:08:14;7.80;99.90
7654;DHT22;3869;48.406;10.774;2024-02-23T14:10:42;7.70;99.90
7654;DHT22;3869;48.406;10.774;2024-02-23T14:13:10;7.70;99.90
7654;DHT22;3869;48.406;10.774;2024-02-23T14:15:39;7.70;99.90
7654;DHT22;3869;48.406;10.774;2024-02-23T14:18:07;7.70;99.90
7654;DHT22;3869;48.406;10.774;2024-02-23T14:20:35;7.70;99.90
7654;DHT22;3869;48.406;10.774;2024-02-23T14:23:03;7.70;99.90
7654;DHT22;3869;48.406;10.774;2024-02-23T14:25:33;7.60;99.90
7654;DHT22;3869;48.406;10.774;2024-02-23T14:28:01;7.50;99.90
7654;DHT22;3869;48.406;10.774;2024-02-23T14:30:29;7.50;99.90
7654;DHT22;3869;48.406;10.774;2024-02-23T14:32:57;7.40;99.90
7654;DHT22;3869;48.406;10.774;2024-02-23T14:35:25;7.40;99.90
7654;DHT22;3869;48.406;10.774;2024-02-23T14:37:53;7.40;99.90
7654;DHT22;3869;48.406;10.774;2024-02-23T14:40:22;7.40;99.90
7654;DHT22;3869;48.406;10.774;2024-02-23T14:42:51;7.40;99.90
7654;DHT22;3869;48.406;10.774;2024-02-23T14:45:19;7.40;99.90
7654;DHT22;3869;48.406;10.774;2024-02-23T14:47:49;7.40;99.90
7654;DHT22;3869;48.406;10.774;2024-02-23T14:50:18;7.40;99.90
7654;DHT22;3869;48.406;10.774;2024-02-23T14:52:46;7.40;99.90
7654;DHT22;3869;48.406;10.774;2024-02-23T14:55:14;7.40;99.90
7654;DHT22;3869;48.406;10.774;2024-02-23T14:57:42;7.40;99.90
7654;DHT22;3869;48.406;10.774;2024-02-23T15:00:13;7.50;99.90
7654;DHT22;3869;48.406;10.774;2024-02-23T15:02:41;7.50;99.90
7654;DHT22;3869;48.406;10.774;2024-02-23T15:05:09;7.50;99.90
7654;DHT22;3869;48.406;10.774;2024-02-23T15:07:38;7.50;99.90
7654;DHT22;3869;48.406;10.774;2024-02-23T15:10:06;7.50;99.90
7654;DHT22;3869;48.406;10.774;2024-02-23T15:12:35;7.40;99.90
7654;DHT22;3869;48.406;10.774;2024-02-23T15:15:04;7.40;99.90
7654;DHT22;3869;48.406;10.774;2024-02-23T15:17:35;7.40;99.90
7654;DHT22;3869;48.406;10.774;2024-02-23T15:20:04;7.30;99.90
7654;DHT22;3869;48.406;10.774;2024-02-23T15:22:32;7.40;99.90
7654;DHT22;3869;48.406;10.774;2024-02-23T15:25:00;7.30;99.90
7654;DHT22;3869;48.406;10.774;2024-02-23T15:27:30;7.30;99.90
7654;DHT22;3869;48.406;10.774;2024-02-23T15:29:58;7.30;99.90
7654;DHT22;3869;48.406;10.774;2024-02-23T15:32:27;7.30;99.90
7654;DHT22;3869;48.406;10.774;2024-02-23T15:34:56;7.30;99.90
7654;DHT22;3869;48.406;10.774;2024-02-23T15:37:24;7.30;99.90
7654;DHT22;3869;48.406;10.774;2024-02-23T15:39:52;7.30;99.90
7654;DHT22;3869;48.406;10.774;2024-02-23T15:42:20;7.30;99.90
7654;DHT22;3869;48.406;10.774;2024-02-23T15:44:48;7.30;99.90
7654;DHT22;3869;48.406;10.774;2024-02-23T15:47:17;7.30;99.90
7654;DHT22;3869;48.406;10.774;2024-02-23T15:49:45;7.30;99.90
7654;DHT22;3869;48.406;10.774;2024-02-23T15:52:34;7.30;99.90
7654;DHT22;3869;48.406;10.774;2024-02-23T15:55:02;7.20;99.90
7654;DHT22;3869;48.406;10.774;2024-02-23T15:57:31;7.20;99.90
7654;DHT22;3869;48.406;10.774;2024-02-23T15:59:59;7.20;99.90
7654;DHT22;3869;48.406;10.774;2024-02-23T16:02:30;7.20;99.90
7654;DHT22;3869;48.406;10.774;2024-02-23T16:04:58;7.10;99.90
7654;DHT22;3869;48.406;10.774;2024-02-23T16:07:26;7.10;99.90
7654;DHT22;3869;48.406;10.774;2024-02-23T16:09:56;7.10;99.90
7654;DHT22;3869;48.406;10.774;2024-02-23T16:12:24;7.00;99.90